Time;durP1;ratioP1;P1;durP2;ratioP2;P2;SDS_P1;SDS_P2;PMS_P1;PMS_P2;Temp;Humidity;BMP_temperature;BMP_pressure;BME280_temperature;BME280_humidity;BME280_pressure;Samples;Min_cycle;Max_cycle;Signal;HPM_P1;HPM_P2
2023/07/26 00:02:04;;;;;;;5.53;3.00;;;;;;;22.64;61.70;99981.00;5054306;28;20213;-61
2023/07/26 00:04:29;;;;;;;6.33;3.40;;;;;;;22.64;61.81;99975.25;5065676;28;20233;-60
2023/07/26 00:06:55;;;;;;;8.63;3.00;;;;;;;22.63;61.91;99984.28;5067268;28;20196;-61
2023/07/26 00:09:21;;;;;;;4.60;3.00;;;;;;;22.63;62.16;99987.97;5051870;28;20191;-60
2023/07/26 00:11:46;;;;;;;6.00;3.03;;;;;;;22.63;61.80;99981.41;5056530;28;20237;-61
2023/07/26 00:14:13;;;;;;;4.70;2.87;;;;;;;22.63;61.69;99990.06;5072153;28;20775;-61
2023/07/26 00:16:39;;;;;;;5.90;2.90;;;;;;;22.63;62.34;99981.41;5071137;28;20179;-61
2023/07/26 00:19:04;;;;;;;4.20;3.10;;;;;;;22.63;62.08;99993.72;5052949;28;20472;-61
2023/07/26 00:21:30;;;;;;;4.90;3.33;;;;;;;22.62;62.12;99983.47;5059711;28;20923;-60
2023/07/26 00:23:55;;;;;;;5.83;2.63;;;;;;;22.62;61.85;99988.41;5070965;28;20213;-61
2023/07/26 00:26:21;;;;;;;5.30;3.17;;;;;;;22.61;62.00;99984.72;5032142;28;20191;-60
2023/07/26 00:28:46;;;;;;;3.80;3.00;;;;;;;22.62;62.09;99986.34;5070195;28;20186;-61
2023/07/26 00:31:11;;;;;;;4.53;3.23;;;;;;;22.61;62.07;99984.72;5068555;28;20207;-61
2023/07/26 00:33:37;;;;;;;5.63;3.00;;;;;;;22.60;61.57;99991.72;5051450;28;20186;-61
2023/07/26 00:36:02;;;;;;;5.63;3.10;;;;;;;22.61;61.91;99992.50;5063861;28;20191;-60
2023/07/26 00:38:28;;;;;;;3.60;2.63;;;;;;;22.60;62.39;99990.88;5050090;28;20198;-61
2023/07/26 00:40:53;;;;;;;3.60;2.50;;;;;;;22.60;62.09;99994.59;5049390;28;20179;-61
2023/07/26 00:43:19;;;;;;;4.80;2.40;;;;;;;22.60;61.73;99991.72;5061300;28;20175;-60
2023/07/26 00:45:44;;;;;;;3.77;2.60;;;;;;;22.59;61.76;99989.25;5059710;28;20180;-60
2023/07/26 00:48:10;;;;;;;8.40;3.20;;;;;;;22.59;62.05;99992.13;5067983;28;20202;-60
2023/07/26 00:50:36;;;;;;;4.33;2.80;;;;;;;22.59;61.93;99995.81;5066111;28;20206;-60
2023/07/26 00:53:02;;;;;;;4.07;2.97;;;;;;;22.59;61.35;99997.88;5068439;28;20183;-61
2023/07/26 00:55:27;;;;;;;5.57;2.30;;;;;;;22.59;62.15;99992.94;5066270;28;20834;-61
2023/07/26 00:57:53;;;;;;;5.10;2.37;;;;;;;22.58;61.77;99999.91;5051738;28;20212;-61
2023/07/26 01:00:40;;;;;;;7.87;2.70;;;;;;;22.58;61.83;100002.78;5045785;28;20196;-61
2023/07/26 01:03:06;;;;;;;4.07;2.67;;;;;;;22.58;61.86;99999.91;5051822;28;20191;-60
2023/07/26 01:05:34;;;;;;;5.33;2.40;;;;;;;22.57;61.50;99997.47;5070499;28;20441;-61
2023/07/26 01:08:26;;;;;;;4.40;2.83;;;;;;;22.58;61.56;100007.75;5053281;28;20183;-61
2023/07/26 01:11:26;;;;;;;3.73;2.23;;;;;;;22.58;61.38;100007.75;5039231;28;21174;-60
2023/07/26 01:13:55;;;;;;;3.47;2.40;;;;;;;22.57;61.53;99998.28;5033021;28;20433;-60
2023/07/26 01:16:20;;;;;;;3.77;2.60;;;;;;;22.57;61.56;100000.34;5044483;28;20441;-60
2023/07/26 01:18:46;;;;;;;4.90;3.00;;;;;;;22.55;61.89;100003.66;5015231;28;20627;-60
2023/07/26 01:21:11;;;;;;;3.33;2.47;;;;;;;22.57;61.94;100011.88;5052140;28;20187;-61
2023/07/26 01:23:38;;;;;;;3.70;2.33;;;;;;;22.55;61.94;100009.41;5051788;28;20191;-61
2023/07/26 01:26:04;;;;;;;6.40;2.23;;;;;;;22.55;61.52;100008.56;5049421;28;20179;-61
2023/07/26 01:28:30;;;;;;;5.37;2.90;;;;;;;22.55;61.64;100011.44;5051492;28;20441;-61
2023/07/26 01:30:56;;;;;;;7.57;2.67;;;;;;;22.55;61.72;100020.06;5048962;28;20817;-61
2023/07/26 01:33:21;;;;;;;3.50;2.10;;;;;;;22.54;61.56;100019.28;5033397;28;20257;-61
2023/07/26 01:35:46;;;;;;;6.13;3.03;;;;;;;22.55;61.84;100026.66;5051457;28;20219;-61
2023/07/26 01:38:12;;;;;;;5.03;2.47;;;;;;;22.54;61.66;100018.44;5064108;28;20182;-60
2023/07/26 01:40:37;;;;;;;6.50;2.73;;;;;;;22.54;61.85;100013.50;5036824;28;20283;-60
2023/07/26 01:43:03;;;;;;;5.37;2.67;;;;;;;22.54;61.81;100018.44;5049488;28;20161;-61
2023/07/26 01:45:29;;;;;;;6.80;2.83;;;;;;;22.53;61.93;100020.47;5042825;28;20270;-61
2023/07/26 01:47:54;;;;;;;5.47;2.30;;;;;;;22.53;61.73;100014.72;5051760;28;20960;-61
2023/07/26 01:50:20;;;;;;;6.57;2.80;;;;;;;22.52;61.68;100018.03;5050851;28;20160;-60
2023/07/26 01:52:45;;;;;;;11.13;2.63;;;;;;;22.53;61.53;100019.69;5048239;28;20187;-60
2023/07/26 01:55:10;;;;;;;3.77;2.80;;;;;;;22.53;61.61;100019.69;5048547;28;20211;-60
2023/07/26 01:57:36;;;;;;;3.77;2.77;;;;;;;22.51;61.76;100022.97;5067635;28;20544;-60
2023/07/26 02:00:01;;;;;;;5.47;2.67;;;;;;;22.51;61.38;100020.09;5065292;28;20552;-61
2023/07/26 02:02:27;;;;;;;5.07;2.90;;;;;;;22.52;61.71;100030.34;5051473;28;20547;-61
2023/07/26 02:04:52;;;;;;;4.70;2.37;;;;;;;22.51;61.68;100022.97;5060912;28;20745;-61
2023/07/26 02:07:18;;;;;;;6.53;2.67;;;;;;;22.51;61.27;100025.84;5054445;28;20192;-61
2023/07/26 02:09:43;;;;;;;3.40;2.47;;;;;;;22.50;61.33;100029.97;5049653;28;20183;-61
2023/07/26 02:12:09;;;;;;;5.80;2.50;;;;;;;22.51;61.33;100025.00;5031413;28;20186;-61
2023/07/26 02:14:34;;;;;;;3.80;2.77;;;;;;;22.50;61.42;100027.09;5039266;28;20194;-60
2023/07/26 02:17:00;;;;;;;3.20;2.20;;;;;;;22.49;61.48;100034.09;5033304;28;20591;-61
2023/07/26 02:19:25;;;;;;;7.47;3.10;;;;;;;22.49;61.24;100034.09;5049173;28;20230;-60
2023/07/26 02:21:51;;;;;;;3.30;2.17;;;;;;;22.50;61.00;100034.88;5059775;28;20199;-61
2023/07/26 02:24:16;;;;;;;4.83;2.53;;;;;;;22.49;61.42;100042.72;5068439;28;20171;-60
2023/07/26 02:26:41;;;;;;;5.43;2.43;;;;;;;22.49;61.61;100048.47;5065582;28;20232;-61
2023/07/26 02:29:07;;;;;;;4.80;2.70;;;;;;;22.49;61.30;100044.75;5048758;28;20171;-61
2023/07/26 02:31:33;;;;;;;4.83;2.60;;;;;;;22.48;61.19;100035.28;5048282;28;21001;-60
2023/07/26 02:33:58;;;;;;;4.70;2.70;;;;;;;22.48;61.38;100037.38;5053221;28;20218;-60
2023/07/26 02:36:24;;;;;;;4.03;2.57;;;;;;;22.47;61.08;100042.28;5064582;28;20206;-60
2023/07/26 02:38:49;;;;;;;5.20;2.60;;;;;;;22.47;61.09;100042.28;5065194;28;20191;-60
2023/07/26 02:41:15;;;;;;;6.30;2.57;;;;;;;22.46;60.79;100037.78;5048499;28;20210;-60
2023/07/26 02:43:40;;;;;;;4.60;2.53;;;;;;;22.46;61.21;100037.78;5058000;28;20236;-61
2023/07/26 02:46:06;;;;;;;3.80;2.40;;;;;;;22.46;60.88;100043.53;5055106;28;20206;-60
2023/07/26 02:48:32;;;;;;;4.13;2.57;;;;;;;22.46;61.05;100042.69;5048104;28;20183;-61
2023/07/26 02:50:57;;;;;;;4.70;2.27;;;;;;;22.47;61.13;100050.13;5051867;28;20593;-61
2023/07/26 02:53:23;;;;;;;5.30;2.67;;;;;;;22.46;60.63;100045.56;5067916;28;20425;-61
2023/07/26 02:55:48;;;;;;;4.77;2.57;;;;;;;22.45;61.06;100050.53;5067752;28;20281;-60
2023/07/26 02:58:14;;;;;;;5.23;2.70;;;;;;;22.45;61.19;100049.69;5068051;28;20217;-61
2023/07/26 03:00:39;;;;;;;6.87;2.60;;;;;;;22.44;60.53;100056.66;5064387;28;20684;-61
2023/07/26 03:03:05;;;;;;;3.33;2.20;;;;;;;22.45;60.56;100055.44;5068459;28;20613;-60
2023/07/26 03:05:30;;;;;;;5.73;2.30;;;;;;;22.45;60.96;100055.44;5045714;28;20210;-61
2023/07/26 03:07:56;;;;;;;4.57;2.70;;;;;;;22.44;60.84;100053.78;5067835;28;20171;-61
2023/07/26 03:10:21;;;;;;;4.30;2.80;;;;;;;22.45;60.83;100061.19;5065952;28;21568;-61
2023/07/26 03:12:47;;;;;;;4.47;2.63;;;;;;;22.44;60.77;100062.41;5047287;28;20187;-61
2023/07/26 03:15:12;;;;;;;4.70;2.47;;;;;;;22.43;61.12;100070.19;5067608;28;20206;-61
2023/07/26 03:17:37;;;;;;;4.10;2.40;;;;;;;22.44;60.49;100071.91;5064259;28;20190;-60
2023/07/26 03:20:03;;;;;;;4.20;2.70;;;;;;;22.43;60.83;100073.06;5067125;28;20163;-61
2023/07/26 03:22:29;;;;;;;6.10;2.50;;;;;;;22.43;60.70;100075.94;5067575;28;20183;-60
2023/07/26 03:24:54;;;;;;;3.00;1.83;;;;;;;22.43;60.40;100073.06;5067671;28;20505;-61
2023/07/26 03:27:20;;;;;;;7.17;2.60;;;;;;;22.44;61.00;100074.78;5053530;28;20199;-60
2023/07/26 03:29:45;;;;;;;4.33;2.20;;;;;;;22.43;60.71;100075.16;5047796;28;20187;-60
2023/07/26 03:32:11;;;;;;;4.30;2.77;;;;;;;22.43;60.56;100075.94;5047430;28;20180;-61
2023/07/26 03:34:36;;;;;;;3.13;2.20;;;;;;;22.42;60.76;100077.19;5050306;28;20207;-60
2023/07/26 03:37:02;;;;;;;2.50;1.80;;;;;;;22.42;60.51;100074.31;5057812;28;20186;-61
2023/07/26 03:39:27;;;;;;;4.30;2.40;;;;;;;22.42;60.82;100080.06;5064677;28;20201;-61
2023/07/26 03:41:53;;;;;;;2.90;2.20;;;;;;;22.42;60.62;100085.81;5031110;28;20647;-61
2023/07/26 03:44:19;;;;;;;4.70;2.50;;;;;;;22.43;61.29;100081.72;5039680;28;20846;-61
2023/07/26 03:46:45;;;;;;;6.77;2.50;;;;;;;22.41;61.10;100084.19;5067502;28;20297;-60
2023/07/26 03:49:10;;;;;;;4.47;2.00;;;;;;;22.41;60.91;100084.19;5063712;28;21318;-60
2023/07/26 03:51:36;;;;;;;2.80;2.30;;;;;;;22.41;61.18;100084.19;5036959;28;20229;-60
2023/07/26 03:54:01;;;;;;;6.50;2.63;;;;;;;22.41;60.90;100084.19;5068576;28;20175;-60
2023/07/26 03:56:27;;;;;;;4.40;2.07;;;;;;;22.40;61.14;100087.47;5046667;28;20187;-60
2023/07/26 03:58:52;;;;;;;5.47;2.70;;;;;;;22.40;61.06;100085.44;5068440;28;20171;-61
2023/07/26 04:01:17;;;;;;;2.60;2.17;;;;;;;22.40;60.64;100088.31;5059343;28;20187;-60
2023/07/26 04:03:43;;;;;;;5.13;2.23;;;;;;;22.40;61.18;100094.06;5048100;28;20179;-61
2023/07/26 04:06:12;;;;;;;3.97;2.27;;;;;;;22.40;60.91;100094.06;5046835;28;20202;-60
2023/07/26 04:08:39;;;;;;;4.10;2.00;;;;;;;22.40;61.11;100087.47;5064892;28;20164;-60
2023/07/26 04:11:05;;;;;;;2.70;1.90;;;;;;;22.40;60.49;100094.06;5055956;28;20438;-61
2023/07/26 04:13:30;;;;;;;7.60;3.07;;;;;;;22.39;60.58;100086.66;5050798;28;21186;-60
2023/07/26 04:15:55;;;;;;;4.30;2.60;;;;;;;22.40;60.84;100087.47;5053056;28;20555;-61
2023/07/26 04:18:21;;;;;;;4.87;2.73;;;;;;;22.39;60.95;100095.31;5070372;28;20240;-61
2023/07/26 04:20:46;;;;;;;3.67;1.83;;;;;;;22.39;60.99;100091.59;5070728;28;20191;-61
2023/07/26 04:23:12;;;;;;;2.70;1.80;;;;;;;22.38;61.00;100085.00;5070580;28;20652;-60
2023/07/26 04:25:37;;;;;;;3.30;2.27;;;;;;;22.38;60.88;100085.00;5015467;28;20652;-60
2023/07/26 04:28:03;;;;;;;4.00;2.27;;;;;;;22.38;60.74;100093.63;5032306;28;20175;-61
2023/07/26 04:30:28;;;;;;;3.07;2.10;;;;;;;22.37;61.30;100089.13;5049039;28;20520;-60
2023/07/26 04:32:54;;;;;;;5.13;2.47;;;;;;;22.38;61.08;100085.00;5064535;28;20190;-60
2023/07/26 04:35:19;;;;;;;3.87;2.30;;;;;;;22.38;61.22;100082.13;5049207;28;20215;-61
2023/07/26 04:37:45;;;;;;;3.10;1.93;;;;;;;22.37;61.10;100094.88;5064471;28;20288;-61
2023/07/26 04:40:10;;;;;;;4.10;2.20;;;;;;;22.37;60.98;100089.13;5065256;28;20360;-61
2023/07/26 04:42:36;;;;;;;3.43;2.27;;;;;;;22.37;60.86;100094.06;5050692;28;20635;-61
2023/07/26 04:45:01;;;;;;;3.03;2.10;;;;;;;22.37;60.76;100099.81;5049971;28;20157;-61
2023/07/26 04:47:27;;;;;;;5.00;2.67;;;;;;;22.36;61.02;100099.00;5034871;28;20191;-61
2023/07/26 04:49:52;;;;;;;6.33;2.70;;;;;;;22.36;61.45;100101.88;5050337;28;20183;-61
2023/07/26 04:52:18;;;;;;;3.90;2.30;;;;;;;22.36;60.90;100116.25;5055678;28;20192;-61
2023/07/26 04:54:43;;;;;;;3.43;1.80;;;;;;;22.36;60.93;100116.25;5054544;28;20651;-61
2023/07/26 04:57:09;;;;;;;3.87;1.93;;;;;;;22.37;60.95;100114.22;5061831;28;20634;-61
2023/07/26 04:59:34;;;;;;;3.50;2.00;;;;;;;22.35;60.93;100120.38;5053275;28;20612;-60
2023/07/26 05:01:59;;;;;;;3.60;2.50;;;;;;;22.35;60.93;100123.25;5056749;28;20548;-61
2023/07/26 05:04:25;;;;;;;4.00;2.13;;;;;;;22.35;61.22;100131.03;5049906;28;20535;-60
2023/07/26 05:06:50;;;;;;;4.73;2.37;;;;;;;22.34;61.02;100124.47;5052358;28;20762;-61
2023/07/26 05:09:16;;;;;;;3.67;1.93;;;;;;;22.34;61.48;100130.22;5070218;28;20175;-60
2023/07/26 05:11:42;;;;;;;4.70;2.17;;;;;;;22.33;60.61;100128.56;5069776;28;20193;-61
2023/07/26 05:14:07;;;;;;;3.30;1.80;;;;;;;22.33;61.42;100145.03;5054375;28;20194;-61
2023/07/26 05:16:32;;;;;;;7.80;2.07;;;;;;;22.32;61.16;100138.44;5048471;28;20176;-62
2023/07/26 05:18:59;;;;;;;4.10;2.43;;;;;;;22.33;60.73;100148.69;5054239;28;20241;-62
2023/07/26 05:21:25;;;;;;;5.17;2.27;;;;;;;22.32;61.26;100144.19;5068704;28;20198;-61
2023/07/26 05:23:50;;;;;;;4.90;2.10;;;;;;;22.33;61.04;100145.81;5050989;28;20425;-62
2023/07/26 05:26:16;;;;;;;4.10;2.00;;;;;;;22.32;60.96;100143.38;5069267;28;20449;-61
2023/07/26 05:28:41;;;;;;;3.80;2.30;;;;;;;22.32;60.93;100143.38;5047148;28;20191;-61
2023/07/26 05:31:07;;;;;;;3.93;2.10;;;;;;;22.31;60.57;100136.78;5053055;28;20191;-61
2023/07/26 05:33:32;;;;;;;5.00;2.23;;;;;;;22.32;60.66;100149.13;5050776;28;20175;-61
2023/07/26 05:35:58;;;;;;;4.07;1.87;;;;;;;22.31;60.84;100142.53;5053240;28;20243;-61
2023/07/26 05:38:23;;;;;;;3.30;2.00;;;;;;;22.32;61.23;100131.88;5050942;28;20174;-61
2023/07/26 05:40:49;;;;;;;3.30;2.10;;;;;;;22.30;61.18;100138.03;5052974;28;20179;-61
2023/07/26 05:43:16;;;;;;;4.50;1.87;;;;;;;22.30;61.09;100140.91;5052272;28;20163;-61
2023/07/26 05:45:42;;;;;;;3.60;2.10;;;;;;;22.30;60.87;100140.91;5067307;28;20194;-61
2023/07/26 05:48:07;;;;;;;4.43;2.37;;;;;;;22.31;60.83;100144.59;5037487;28;20453;-60
2023/07/26 05:50:32;;;;;;;6.50;2.40;;;;;;;22.30;60.78;100145.81;5066243;28;20175;-62
2023/07/26 05:52:58;;;;;;;3.50;1.67;;;;;;;22.29;60.72;100150.78;5068341;28;20179;-61
2023/07/26 05:55:24;;;;;;;4.93;2.27;;;;;;;22.29;61.08;100150.78;5069114;28;20191;-61
2023/07/26 05:57:49;;;;;;;2.97;1.90;;;;;;;22.29;61.19;100153.66;5047515;28;20198;-61
2023/07/26 06:00:17;;;;;;;4.70;2.50;;;;;;;22.29;60.71;100152.81;5048102;28;20184;-60
2023/07/26 06:02:42;;;;;;;4.20;2.00;;;;;;;22.28;61.36;100156.94;5058497;28;20229;-61
2023/07/26 06:05:08;;;;;;;4.27;2.10;;;;;;;22.28;60.97;100146.22;5047220;28;20851;-61
2023/07/26 06:07:34;;;;;;;2.77;1.87;;;;;;;22.27;60.65;100156.09;5047657;28;20597;-61
2023/07/26 06:09:59;;;;;;;4.60;2.20;;;;;;;22.28;60.93;100159.81;5055865;28;20298;-61
2023/07/26 06:12:25;;;;;;;3.40;2.10;;;;;;;22.27;60.74;100155.28;5045674;28;20179;-61
2023/07/26 06:14:50;;;;;;;3.83;2.00;;;;;;;22.27;60.69;100158.97;5049099;28;20215;-61
2023/07/26 06:17:15;;;;;;;5.37;2.00;;;;;;;22.28;61.18;100159.81;5056067;28;20179;-61
2023/07/26 06:19:41;;;;;;;8.50;3.60;;;;;;;22.28;60.87;100154.06;5042528;28;20232;-61
2023/07/26 06:22:06;;;;;;;6.07;2.10;;;;;;;22.27;61.15;100161.84;5031450;28;20203;-61
2023/07/26 06:24:32;;;;;;;2.70;1.77;;;;;;;22.27;60.99;100164.72;5029770;28;20227;-61
2023/07/26 06:26:57;;;;;;;5.13;1.80;;;;;;;22.27;61.01;100166.81;5029903;28;20176;-60
2023/07/26 06:29:23;;;;;;;3.67;1.97;;;;;;;22.26;61.29;100168.84;5045157;28;20200;-60
2023/07/26 06:31:48;;;;;;;4.97;2.37;;;;;;;22.26;61.20;100165.97;5045792;28;21065;-60
2023/07/26 06:34:14;;;;;;;3.50;1.97;;;;;;;22.26;61.26;100163.09;5029329;28;20185;-60
2023/07/26 06:36:39;;;;;;;3.67;1.77;;;;;;;22.25;61.25;100172.97;5032716;28;20678;-61
2023/07/26 06:39:05;;;;;;;3.73;1.87;;;;;;;22.25;60.64;100170.06;5032009;28;20800;-61
2023/07/26 06:41:30;;;;;;;4.50;1.73;;;;;;;22.24;60.85;100171.31;5039730;28;20749;-62
2023/07/26 06:43:56;;;;;;;6.00;2.20;;;;;;;22.25;60.90;100175.84;5019135;28;20218;-60
2023/07/26 06:46:21;;;;;;;5.20;1.97;;;;;;;22.24;61.02;100171.31;5030083;28;20250;-61
2023/07/26 06:48:47;;;;;;;5.47;2.00;;;;;;;22.24;61.30;100168.44;5029812;28;20165;-62
2023/07/26 06:51:12;;;;;;;4.40;1.80;;;;;;;22.24;60.73;100167.59;5032605;28;20191;-60
2023/07/26 06:53:38;;;;;;;3.37;1.70;;;;;;;22.23;61.10;100171.72;5032590;28;20196;-61
2023/07/26 06:56:03;;;;;;;3.67;2.50;;;;;;;22.24;60.93;100176.22;5045056;28;20208;-61
2023/07/26 06:58:29;;;;;;;4.43;2.10;;;;;;;22.24;60.92;100170.47;5031078;28;20168;-61
2023/07/26 07:00:54;;;;;;;4.90;2.23;;;;;;;22.24;60.85;100171.31;5027451;28;20533;-61
2023/07/26 07:03:20;;;;;;;3.60;2.00;;;;;;;22.24;60.56;100174.19;5013562;28;20866;-61
2023/07/26 07:05:45;;;;;;;6.80;2.17;;;;;;;22.24;60.65;100170.47;5027466;28;20680;-60
2023/07/26 07:08:11;;;;;;;3.17;1.90;;;;;;;22.24;60.81;100171.31;5026955;28;20797;-62
2023/07/26 07:10:36;;;;;;;3.90;2.30;;;;;;;22.25;60.38;100172.13;5046264;28;21075;-61
2023/07/26 07:13:02;;;;;;;2.60;1.80;;;;;;;22.24;60.72;100167.59;5047684;28;20160;-61
2023/07/26 07:15:28;;;;;;;3.33;1.60;;;;;;;22.23;60.70;100169.66;5039086;28;20929;-61
2023/07/26 07:17:53;;;;;;;2.20;1.70;;;;;;;22.23;60.69;100172.53;5030292;28;20465;-62
2023/07/26 07:20:19;;;;;;;4.20;1.80;;;;;;;22.22;61.45;100173.75;5052071;28;20187;-60
2023/07/26 07:22:45;;;;;;;3.93;1.90;;;;;;;22.22;61.04;100175.84;5066508;28;20279;-62
2023/07/26 07:25:10;;;;;;;2.73;1.67;;;;;;;22.23;60.94;100171.72;5048514;28;20441;-61
2023/07/26 07:27:36;;;;;;;4.77;1.90;;;;;;;22.20;60.92;100170.47;5048887;28;20195;-60
2023/07/26 07:30:02;;;;;;;4.73;2.10;;;;;;;22.21;61.22;100172.13;5048790;28;20580;-60
2023/07/26 07:32:27;;;;;;;3.37;1.60;;;;;;;22.20;60.91;100170.47;5049118;28;20248;-61
2023/07/26 07:34:52;;;;;;;8.73;1.97;;;;;;;22.21;60.58;100169.25;5016464;28;20207;-61
2023/07/26 07:37:19;;;;;;;2.63;1.70;;;;;;;22.22;61.04;100190.22;5048393;28;20194;-61
2023/07/26 07:39:44;;;;;;;2.53;1.60;;;;;;;22.22;60.88;100191.03;5051043;28;20187;-61
2023/07/26 07:42:10;;;;;;;3.70;1.67;;;;;;;22.22;61.33;100179.50;5048900;28;20433;-60
2023/07/26 07:44:35;;;;;;;2.40;1.63;;;;;;;22.22;61.26;100193.91;5054073;28;20186;-61
2023/07/26 07:47:00;;;;;;;5.87;1.60;;;;;;;22.22;61.04;100193.91;5058916;28;20202;-60
2023/07/26 07:49:26;;;;;;;4.00;2.20;;;;;;;22.22;61.04;100191.03;5057505;28;20195;-60
2023/07/26 07:51:52;;;;;;;2.70;1.70;;;;;;;22.23;60.57;100194.72;5067059;28;20186;-62
2023/07/26 07:54:17;;;;;;;4.13;1.87;;;;;;;22.21;61.43;100192.25;5070387;28;20194;-66
2023/07/26 07:56:43;;;;;;;4.17;2.00;;;;;;;22.22;60.83;100190.22;5060542;28;20183;-66
2023/07/26 07:59:08;;;;;;;2.63;1.43;;;;;;;22.21;60.79;100191.41;5070105;28;20182;-66
2023/07/26 08:01:34;;;;;;;3.20;2.00;;;;;;;22.21;61.63;100192.25;5064552;28;20191;-65
2023/07/26 08:03:59;;;;;;;3.57;1.80;;;;;;;22.22;60.81;100193.91;5068974;28;20225;-65
2023/07/26 08:06:29;;;;;;;3.60;1.90;;;;;;;22.22;60.90;100205.41;5048004;28;20232;-65
2023/07/26 08:08:54;;;;;;;4.23;1.87;;;;;;;22.21;61.44;100206.63;5067739;28;20201;-64
2023/07/26 08:11:20;;;;;;;6.20;3.80;;;;;;;22.22;61.46;100202.53;5051531;28;20910;-65
2023/07/26 08:13:46;;;;;;;5.60;3.40;;;;;;;22.19;60.93;100197.59;5031039;28;20261;-66
2023/07/26 08:16:11;;;;;;;4.43;3.13;;;;;;;22.13;60.89;100207.84;5052554;28;20466;-66
2023/07/26 08:18:37;;;;;;;12.47;3.00;;;;;;;22.15;62.44;100211.16;5050244;28;20230;-66
2023/07/26 08:21:02;;;;;;;10.90;4.70;;;;;;;22.13;61.44;100204.97;5035021;28;20312;-67
2023/07/26 08:23:29;;;;;;;45.23;5.77;;;;;;;22.07;61.48;100200.03;5037806;28;20278;-67
2023/07/26 08:25:55;;;;;;;55.90;6.07;;;;;;;21.99;62.35;100204.97;5048424;28;20401;-63
2023/07/26 08:28:20;;;;;;;18.10;6.00;;;;;;;21.89;62.69;100199.16;5052420;28;21226;-63
2023/07/26 08:30:47;;;;;;;22.17;4.73;;;;;;;21.90;63.86;100195.88;5071373;28;20718;-64
2023/07/26 08:33:13;;;;;;;21.40;4.47;;;;;;;22.01;63.54;100198.78;5037648;28;20445;-63
2023/07/26 08:35:38;;;;;;;12.87;5.33;;;;;;;21.96;63.66;100196.28;5050469;28;20813;-64
2023/07/26 08:38:03;;;;;;;9.10;3.50;;;;;;;21.85;64.89;100204.06;5050518;28;20250;-63
2023/07/26 08:40:29;;;;;;;8.07;3.30;;;;;;;21.80;64.43;100202.44;5050809;28;20683;-64
2023/07/26 08:42:55;;;;;;;7.50;3.13;;;;;;;21.71;64.66;100193.34;5051899;28;20937;-63
2023/07/26 08:45:21;;;;;;;7.20;3.90;;;;;;;21.67;64.28;100201.09;5049902;28;20168;-63
2023/07/26 08:47:46;;;;;;;5.23;3.07;;;;;;;21.59;65.25;100198.63;5058639;28;20790;-60
2023/07/26 08:50:12;;;;;;;9.63;3.33;;;;;;;21.60;64.32;100198.22;5069239;28;20533;-61
2023/07/26 08:52:37;;;;;;;18.43;3.00;;;;;;;21.63;64.76;100206.00;5064581;28;20183;-59
2023/07/26 08:55:03;;;;;;;9.63;2.93;;;;;;;21.69;65.77;100204.44;5050739;28;20203;-59
2023/07/26 08:57:29;;;;;;;6.10;2.90;;;;;;;21.68;64.23;100211.41;5067353;28;20187;-58
2023/07/26 08:59:54;;;;;;;7.67;2.60;;;;;;;21.74;63.82;100208.97;5050261;28;20210;-58
2023/07/26 09:02:20;;;;;;;14.20;2.60;;;;;;;21.80;63.26;100213.09;5063736;28;20546;-59
2023/07/26 09:04:45;;;;;;;6.93;2.27;;;;;;;21.82;63.60;100210.66;5031483;28;20597;-59
2023/07/26 09:07:11;;;;;;;3.67;2.10;;;;;;;21.84;63.28;100197.53;5049583;28;20286;-58
2023/07/26 09:09:37;;;;;;;4.83;2.20;;;;;;;21.80;62.87;100198.72;5036591;28;20183;-59
2023/07/26 09:12:02;;;;;;;10.93;2.17;;;;;;;21.79;62.46;100197.91;5032573;28;20163;-58
2023/07/26 09:14:29;;;;;;;6.93;1.93;;;;;;;21.84;62.29;100202.44;5050381;28;20211;-58
2023/07/26 09:16:58;;;;;;;5.57;2.30;;;;;;;21.84;61.84;100197.53;5065765;28;20224;-59
2023/07/26 09:19:28;;;;;;;3.93;2.00;;;;;;;21.86;61.40;100195.06;5045445;28;20562;-58
2023/07/26 09:21:56;;;;;;;7.43;2.30;;;;;;;21.86;62.03;100194.22;5037466;28;20449;-58
2023/07/26 09:24:33;;;;;;;5.60;2.23;;;;;;;21.87;61.87;100202.44;5042288;28;21108;-60
2023/07/26 09:27:04;;;;;;;3.40;2.20;;;;;;;21.88;61.83;100194.66;5030209;28;20472;-58
2023/07/26 09:29:30;;;;;;;5.53;2.87;;;;;;;21.87;61.76;100193.81;5027936;28;20431;-59
2023/07/26 09:31:55;;;;;;;8.40;2.60;;;;;;;21.87;61.21;100193.81;5033998;28;20438;-58
2023/07/26 09:34:21;;;;;;;5.43;2.33;;;;;;;21.84;60.72;100200.41;5036271;28;20184;-60
2023/07/26 09:36:51;;;;;;;4.40;2.00;;;;;;;21.83;60.59;100189.28;5043314;28;20199;-59
2023/07/26 09:39:17;;;;;;;4.83;2.07;;;;;;;21.79;60.92;100206.53;5017833;28;20179;-58
2023/07/26 09:41:45;;;;;;;4.70;2.10;;;;;;;21.78;61.17;100204.88;5030890;28;21070;-59
2023/07/26 09:44:20;;;;;;;6.60;2.10;;;;;;;21.81;60.39;100218.44;5036825;28;20426;-60
2023/07/26 09:46:53;;;;;;;2.80;1.80;;;;;;;21.79;59.64;100220.91;5041690;28;20429;-59
2023/07/26 09:49:19;;;;;;;9.13;2.53;;;;;;;21.76;60.05;100215.13;5012417;28;20874;-60
2023/07/26 09:51:45;;;;;;;8.90;2.63;;;;;;;21.76;60.08;100212.25;5030043;28;20477;-59
2023/07/26 09:54:13;;;;;;;8.57;2.10;;;;;;;21.80;60.53;100211.06;5043563;28;20437;-60
2023/07/26 09:56:40;;;;;;;7.90;2.60;;;;;;;21.79;59.68;100212.28;5036951;28;20223;-60
2023/07/26 09:59:09;;;;;;;7.77;1.90;;;;;;;21.77;59.13;100205.28;5041132;28;20445;-60
2023/07/26 10:01:40;;;;;;;5.30;2.30;;;;;;;21.76;59.38;100207.34;5042085;28;20852;-60
2023/07/26 10:04:06;;;;;;;6.73;1.80;;;;;;;21.79;60.15;100215.16;5012588;28;20551;-59
2023/07/26 10:06:32;;;;;;;5.40;1.63;;;;;;;21.80;60.35;100207.34;5032415;28;20529;-59
2023/07/26 10:08:58;;;;;;;5.63;2.07;;;;;;;21.86;60.77;100206.53;5047579;28;20554;-59
2023/07/26 10:11:23;;;;;;;6.60;2.30;;;;;;;21.86;59.69;100209.41;5019511;28;20477;-59
2023/07/26 10:13:49;;;;;;;15.50;2.43;;;;;;;21.89;60.87;100205.75;5029527;28;20193;-59
2023/07/26 10:16:14;;;;;;;12.20;2.30;;;;;;;21.93;61.31;100203.69;5011294;28;20264;-61
2023/07/26 10:18:40;;;;;;;7.50;2.30;;;;;;;21.97;61.04;100198.78;5030055;28;20231;-59
2023/07/26 10:21:05;;;;;;;5.03;2.53;;;;;;;21.96;60.28;100194.25;5030105;28;20196;-60
2023/07/26 10:23:31;;;;;;;4.63;2.23;;;;;;;21.94;60.74;100208.22;5035535;28;20189;-61
2023/07/26 10:25:57;;;;;;;10.10;2.93;;;;;;;21.93;59.99;100195.06;5033199;28;20180;-60
2023/07/26 10:28:22;;;;;;;4.23;1.73;;;;;;;21.88;59.02;100194.66;5028755;28;20196;-59
2023/07/26 10:30:48;;;;;;;17.47;3.40;;;;;;;22.03;59.48;100193.47;5001548;28;20246;-60
2023/07/26 10:33:14;;;;;;;12.93;2.60;;;;;;;22.39;57.95;100195.16;5036694;28;20234;-60
2023/07/26 10:35:41;;;;;;;12.63;2.80;;;;;;;22.58;57.07;100195.59;5010458;28;20502;-60
2023/07/26 10:38:06;;;;;;;22.60;2.93;;;;;;;22.43;58.07;100190.22;5031983;28;20267;-61
2023/07/26 10:40:37;;;;;;;19.83;2.77;;;;;;;22.21;58.79;100191.41;5016175;28;20446;-61
2023/07/26 10:43:36;;;;;;;9.60;2.20;;;;;;;22.08;58.70;100193.84;5030635;28;20200;-61
2023/07/26 10:46:07;;;;;;;6.63;2.00;;;;;;;22.06;59.37;100195.50;5035279;28;20423;-61
2023/07/26 10:48:39;;;;;;;5.20;1.73;;;;;;;22.08;59.03;100195.94;5028890;28;20473;-60
2023/07/26 10:51:27;;;;;;;7.10;2.10;;;;;;;22.06;59.09;100199.22;5036713;28;20439;-61
2023/07/26 10:53:57;;;;;;;13.73;2.50;;;;;;;22.07;59.04;100195.09;5011078;28;20942;-60
2023/07/26 10:56:34;;;;;;;12.07;2.43;;;;;;;22.09;59.12;100192.66;5032858;28;20486;-60
2023/07/26 10:59:02;;;;;;;7.93;2.60;;;;;;;22.09;58.99;100197.56;5048246;28;21028;-60
2023/07/26 11:01:40;;;;;;;4.60;1.77;;;;;;;22.09;59.71;100192.66;5032873;28;20439;-61
2023/07/26 11:04:19;;;;;;;6.53;2.10;;;;;;;22.08;59.35;100190.19;5038904;28;20425;-60
2023/07/26 11:06:56;;;;;;;24.40;7.30;;;;;;;22.04;59.93;100181.56;5037129;28;20508;-60
2023/07/26 11:09:29;;;;;;;35.13;9.00;;;;;;;22.04;60.01;100184.44;5046863;28;20503;-60
2023/07/26 11:11:58;;;;;;;26.73;8.67;;;;;;;22.03;59.66;100181.97;5050822;28;20456;-60
2023/07/26 11:14:27;;;;;;;15.33;6.00;;;;;;;22.02;59.88;100191.81;5046905;28;20442;-60
2023/07/26 11:16:53;;;;;;;15.10;5.20;;;;;;;22.00;59.76;100183.59;4999749;28;20499;-60
2023/07/26 11:19:19;;;;;;;18.60;6.93;;;;;;;21.98;59.80;100191.78;5063724;28;20461;-60
2023/07/26 11:21:44;;;;;;;10.93;5.20;;;;;;;21.98;59.79;100194.66;5059190;28;20621;-60